Time;durP1;ratioP1;P1;durP2;ratioP2;P2;SDS_P1;SDS_P2;PMS_P1;PMS_P2;Temp;Humidity;BMP_temperature;BMP_pressure;BME280_temperature;BME280_humidity;BME280_pressure;Samples;Min_cycle;Max_cycle;Signal;HPM_P1;HPM_P2
2023/02/23 00:01:55;;;;;;;3.20;2.28;;;;;;;;;;5054110;28;20182;-44
2023/02/23 00:04:22;;;;;;;2.95;2.08;;;;;;;;;;5051723;28;20266;-44
2023/02/23 00:06:50;;;;;;;2.40;2.20;;;;;;;;;;5053157;28;20191;-44
2023/02/23 00:09:23;;;;;;;3.28;2.60;;;;;;;;;;5055454;28;20225;-44
2023/02/23 00:11:56;;;;;;;2.58;2.20;;;;;;;;;;5054683;28;20182;-44
2023/02/23 00:14:27;;;;;;;3.33;2.60;;;;;;;;;;5051497;28;20443;-45
2023/02/23 00:16:53;;;;;;;2.75;2.22;;;;;;;;;;5059748;28;20231;-44
2023/02/23 00:19:19;;;;;;;2.25;2.05;;;;;;;;;;5058038;28;20175;-44
2023/02/23 00:21:45;;;;;;;2.58;2.20;;;;;;;;;;5063712;28;20187;-44
2023/02/23 00:24:14;;;;;;;4.15;2.47;;;;;;;;;;5040051;28;20212;-44
2023/02/23 00:26:41;;;;;;;2.17;1.90;;;;;;;;;;5065940;28;20180;-44
2023/02/23 00:29:09;;;;;;;2.45;2.22;;;;;;;;;;5065016;28;20693;-44
2023/02/23 00:31:37;;;;;;;2.72;2.20;;;;;;;;;;5056927;28;20180;-44
2023/02/23 00:34:03;;;;;;;2.40;2.10;;;;;;;;;;5039843;28;20239;-44
2023/02/23 00:36:30;;;;;;;2.55;2.20;;;;;;;;;;5056414;28;20207;-44
2023/02/23 00:38:59;;;;;;;2.67;2.38;;;;;;;;;;5055836;28;20183;-44
2023/02/23 00:41:27;;;;;;;2.78;2.40;;;;;;;;;;5051376;28;20995;-44
2023/02/23 00:43:53;;;;;;;2.22;2.03;;;;;;;;;;5040337;28;20183;-44
2023/02/23 00:46:20;;;;;;;2.13;1.80;;;;;;;;;;5043334;28;20191;-44
2023/02/23 00:48:47;;;;;;;2.78;2.10;;;;;;;;;;5045040;28;20594;-44
2023/02/23 00:51:13;;;;;;;3.65;2.35;;;;;;;;;;5036080;28;20229;-45
2023/02/23 00:53:39;;;;;;;2.45;2.25;;;;;;;;;;5039115;28;20203;-44
2023/02/23 00:56:05;;;;;;;3.25;2.33;;;;;;;;;;5043618;28;20579;-45
2023/02/23 00:58:31;;;;;;;2.22;2.03;;;;;;;;;;5044796;28;20438;-44
2023/02/23 01:01:00;;;;;;;2.40;2.08;;;;;;;;;;5037592;28;20183;-45
2023/02/23 01:03:28;;;;;;;2.97;2.40;;;;;;;;;;5043366;28;20179;-45
2023/02/23 01:05:58;;;;;;;2.97;2.10;;;;;;;;;;5044089;28;20195;-45
2023/02/23 01:08:24;;;;;;;2.10;1.90;;;;;;;;;;5062447;28;20175;-44
2023/02/23 01:10:53;;;;;;;2.40;2.20;;;;;;;;;;5047988;28;20791;-44
2023/02/23 01:13:23;;;;;;;2.22;2.03;;;;;;;;;;5049429;28;20249;-44
2023/02/23 01:15:49;;;;;;;4.07;2.55;;;;;;;;;;5045134;28;20172;-44
2023/02/23 01:18:16;;;;;;;2.35;2.15;;;;;;;;;;5048019;28;20176;-44
2023/02/23 01:20:42;;;;;;;2.10;1.83;;;;;;;;;;5051047;28;20187;-44
2023/02/23 01:23:08;;;;;;;2.08;1.98;;;;;;;;;;5039546;28;20592;-45
2023/02/23 01:25:37;;;;;;;2.75;2.08;;;;;;;;;;5039820;28;20183;-44
2023/02/23 01:28:03;;;;;;;2.28;2.08;;;;;;;;;;5042275;28;20254;-45
2023/02/23 01:30:29;;;;;;;2.22;2.03;;;;;;;;;;5061338;28;20186;-44
2023/02/23 01:32:55;;;;;;;2.00;1.90;;;;;;;;;;5050091;28;20202;-45
2023/02/23 01:35:21;;;;;;;2.15;1.95;;;;;;;;;;5043124;28;20501;-44
2023/02/23 01:37:48;;;;;;;2.40;2.20;;;;;;;;;;5038491;28;20172;-44
2023/02/23 01:40:18;;;;;;;2.40;2.20;;;;;;;;;;5035881;28;20183;-44
2023/02/23 01:42:45;;;;;;;3.40;1.95;;;;;;;;;;5052822;28;20221;-44
2023/02/23 01:45:23;;;;;;;2.42;2.22;;;;;;;;;;5043504;28;20187;-45
2023/02/23 01:47:51;;;;;;;2.25;1.90;;;;;;;;;;5052264;28;20190;-44
2023/02/23 01:50:18;;;;;;;2.30;2.10;;;;;;;;;;5046500;28;20674;-44
2023/02/23 01:52:45;;;;;;;2.13;1.90;;;;;;;;;;5049560;28;20203;-44
2023/02/23 01:55:11;;;;;;;1.90;1.65;;;;;;;;;;5060078;28;20187;-44
2023/02/23 01:57:38;;;;;;;1.90;1.80;;;;;;;;;;5049182;28;20183;-44
2023/02/23 02:00:14;;;;;;;2.22;2.03;;;;;;;;;;5040513;28;20294;-44
2023/02/23 02:02:40;;;;;;;2.58;2.10;;;;;;;;;;5050151;28;20298;-44
2023/02/23 02:05:12;;;;;;;2.40;2.20;;;;;;;;;;5050394;28;20572;-44
2023/02/23 02:07:38;;;;;;;2.30;2.10;;;;;;;;;;5042471;28;20472;-44
2023/02/23 02:12:38;;;;;;;2.05;1.85;;;;;;;;;;5043237;28;20195;-44
2023/02/23 02:15:05;;;;;;;2.13;1.92;;;;;;;;;;5046254;28;20577;-44
2023/02/23 02:17:45;;;;;;;2.28;2.08;;;;;;;;;;5043610;28;20233;-44
2023/02/23 02:20:31;;;;;;;2.95;2.15;;;;;;;;;;5056857;28;20613;-44
2023/02/23 02:23:08;;;;;;;2.10;1.90;;;;;;;;;;5047938;28;20185;-44
2023/02/23 02:25:39;;;;;;;2.40;2.17;;;;;;;;;;5075053;28;20174;-44
2023/02/23 02:28:21;;;;;;;2.10;1.92;;;;;;;;;;5063932;28;20266;-44
2023/02/23 02:30:52;;;;;;;2.00;1.90;;;;;;;;;;5052875;28;20176;-44
2023/02/23 02:33:30;;;;;;;2.05;1.85;;;;;;;;;;5050315;28;20677;-44
2023/02/23 02:36:21;;;;;;;2.08;1.80;;;;;;;;;;5044025;28;20183;-44
2023/02/23 02:38:52;;;;;;;1.85;1.75;;;;;;;;;;5053697;28;20182;-44
2023/02/23 02:41:41;;;;;;;2.75;2.00;;;;;;;;;;5056642;28;20483;-44
2023/02/23 02:44:15;;;;;;;1.83;1.73;;;;;;;;;;5036886;28;20192;-44
2023/02/23 02:46:46;;;;;;;2.30;2.10;;;;;;;;;;5047669;28;20189;-44
2023/02/23 02:49:34;;;;;;;2.13;1.95;;;;;;;;;;5048842;28;20182;-44
2023/02/23 02:52:04;;;;;;;2.50;2.30;;;;;;;;;;5056196;28;20200;-44
2023/02/23 02:54:37;;;;;;;1.90;1.80;;;;;;;;;;5040987;28;20286;-44
2023/02/23 02:57:04;;;;;;;1.83;1.73;;;;;;;;;;5045821;28;20535;-44
2023/02/23 04:18:06;;;;;;;2.05;1.85;;;;;;;;;;5040879;28;20180;-44
2023/02/23 04:20:32;;;;;;;1.90;1.80;;;;;;;;;;5055166;28;20578;-44
2023/02/23 04:22:58;;;;;;;2.30;2.03;;;;;;;;;;5052576;28;20194;-44
2023/02/23 04:25:25;;;;;;;2.45;1.73;;;;;;;;;;5052260;28;20194;-44
2023/02/23 04:27:51;;;;;;;2.00;1.90;;;;;;;;;;5063016;28;20182;-45
2023/02/23 04:30:19;;;;;;;1.92;1.77;;;;;;;;;;5052297;28;20209;-44
2023/02/23 04:32:45;;;;;;;1.60;1.50;;;;;;;;;;5051812;28;20182;-44
2023/02/23 04:35:11;;;;;;;2.00;1.90;;;;;;;;;;5041615;28;20174;-44
2023/02/23 04:37:37;;;;;;;1.92;1.73;;;;;;;;;;5045462;28;20184;-45
2023/02/23 04:40:04;;;;;;;1.92;1.80;;;;;;;;;;5047572;28;20210;-44
2023/02/23 04:42:30;;;;;;;2.25;2.05;;;;;;;;;;5043534;28;20230;-44
2023/02/23 04:44:56;;;;;;;1.98;1.77;;;;;;;;;;5063673;28;20183;-44
2023/02/23 04:47:22;;;;;;;1.98;1.88;;;;;;;;;;5053376;28;20198;-44
2023/02/23 04:49:48;;;;;;;2.40;2.17;;;;;;;;;;5044304;28;20184;-44
2023/02/23 04:52:14;;;;;;;1.92;1.83;;;;;;;;;;5043448;28;20789;-45
2023/02/23 04:54:40;;;;;;;1.90;1.73;;;;;;;;;;5036674;28;20257;-44
2023/02/23 04:57:06;;;;;;;2.35;2.00;;;;;;;;;;5041939;28;20561;-44
2023/02/23 04:59:32;;;;;;;2.78;1.98;;;;;;;;;;5043448;28;20207;-44
2023/02/23 05:01:58;;;;;;;2.72;2.17;;;;;;;;;;5045571;28;20482;-44
2023/02/23 05:04:24;;;;;;;2.55;1.88;;;;;;;;;;5038552;28;20538;-44
2023/02/23 05:06:50;;;;;;;2.40;1.88;;;;;;;;;;5048131;28;20188;-44
2023/02/23 05:09:16;;;;;;;2.33;2.10;;;;;;;;;;5051293;28;20244;-44
2023/02/23 05:11:42;;;;;;;2.63;2.22;;;;;;;;;;5054476;28;20183;-44
2023/02/23 05:14:09;;;;;;;2.30;2.00;;;;;;;;;;5062478;28;20208;-44
2023/02/23 05:16:35;;;;;;;4.53;2.20;;;;;;;;;;5048194;28;20967;-44
2023/02/23 05:19:00;;;;;;;4.80;2.58;;;;;;;;;;5045346;28;20205;-44
2023/02/23 05:21:27;;;;;;;3.00;2.40;;;;;;;;;;5045418;28;20559;-44
2023/02/23 05:23:52;;;;;;;2.28;2.08;;;;;;;;;;5062698;28;20593;-44
2023/02/23 05:26:18;;;;;;;3.65;2.42;;;;;;;;;;5048865;28;20215;-44
2023/02/23 05:28:45;;;;;;;5.68;2.92;;;;;;;;;;5041254;28;20233;-44
2023/02/23 05:31:11;;;;;;;5.88;2.70;;;;;;;;;;5051749;28;20198;-44
2023/02/23 05:33:41;;;;;;;5.53;2.67;;;;;;;;;;5048245;28;20305;-44
2023/02/23 05:36:07;;;;;;;6.75;2.95;;;;;;;;;;5047810;28;20182;-44
2023/02/23 05:38:34;;;;;;;7.50;2.75;;;;;;;;;;5048872;28;20231;-44
2023/02/23 05:41:04;;;;;;;5.40;2.97;;;;;;;;;;5048589;28;20463;-45
2023/02/23 05:43:30;;;;;;;7.68;3.20;;;;;;;;;;5050414;28;20214;-44
2023/02/23 05:45:56;;;;;;;6.18;3.22;;;;;;;;;;5056506;28;20238;-44
2023/02/23 05:48:22;;;;;;;5.32;2.85;;;;;;;;;;5044544;28;20193;-44
2023/02/23 05:50:48;;;;;;;4.22;2.65;;;;;;;;;;5054005;28;20218;-44
2023/02/23 05:53:14;;;;;;;5.63;3.10;;;;;;;;;;5050673;28;20257;-44
2023/02/23 05:55:40;;;;;;;5.85;3.13;;;;;;;;;;5037619;28;20196;-44
2023/02/23 05:58:06;;;;;;;7.15;3.00;;;;;;;;;;5043955;28;20525;-44
2023/02/23 06:00:32;;;;;;;6.40;3.50;;;;;;;;;;5038068;28;20199;-44
2023/02/23 06:02:58;;;;;;;7.30;3.13;;;;;;;;;;5050826;28;20179;-44
2023/02/23 06:05:24;;;;;;;5.30;3.17;;;;;;;;;;5048456;28;20197;-44
2023/02/23 06:07:49;;;;;;;7.45;3.63;;;;;;;;;;5045169;28;20183;-44
2023/02/23 06:10:16;;;;;;;5.00;3.10;;;;;;;;;;5052420;28;20220;-44
2023/02/23 06:12:42;;;;;;;7.20;3.03;;;;;;;;;;5045429;28;20186;-44
2023/02/23 06:15:08;;;;;;;6.55;3.15;;;;;;;;;;5048583;28;20176;-44
2023/02/23 06:17:34;;;;;;;8.85;3.05;;;;;;;;;;5051210;28;20696;-44
2023/02/23 06:20:03;;;;;;;6.68;3.20;;;;;;;;;;5041573;28;20243;-44
2023/02/23 06:22:29;;;;;;;5.72;2.80;;;;;;;;;;5056902;28;20183;-44
2023/02/23 06:24:55;;;;;;;4.70;3.00;;;;;;;;;;5058012;28;20184;-44
2023/02/23 06:27:21;;;;;;;4.97;3.13;;;;;;;;;;5049156;28;20179;-44
2023/02/23 06:29:47;;;;;;;7.13;3.20;;;;;;;;;;5049229;28;20207;-44
2023/02/23 06:32:13;;;;;;;5.43;2.72;;;;;;;;;;5051575;28;20736;-45
2023/02/23 06:34:39;;;;;;;6.25;3.40;;;;;;;;;;5048428;28;20341;-45
2023/02/23 06:37:05;;;;;;;8.18;3.15;;;;;;;;;;5056273;28;20178;-45
2023/02/23 06:39:31;;;;;;;7.15;2.80;;;;;;;;;;5051271;28;20207;-44
2023/02/23 06:41:57;;;;;;;5.68;3.22;;;;;;;;;;5046054;28;20179;-44
2023/02/23 06:44:23;;;;;;;6.07;3.25;;;;;;;;;;5064453;28;20179;-44
2023/02/23 06:46:49;;;;;;;5.20;2.83;;;;;;;;;;5046569;28;20197;-44
2023/02/23 06:49:15;;;;;;;4.60;2.88;;;;;;;;;;5040883;28;20229;-44
2023/02/23 06:51:41;;;;;;;6.38;3.20;;;;;;;;;;5046168;28;20191;-44
2023/02/23 06:54:07;;;;;;;7.75;2.72;;;;;;;;;;5037352;28;20337;-44
2023/02/23 06:56:33;;;;;;;5.75;3.00;;;;;;;;;;5039944;28;20187;-44
2023/02/23 06:58:59;;;;;;;6.88;3.20;;;;;;;;;;5050636;28;20187;-44
2023/02/23 07:01:25;;;;;;;5.07;3.00;;;;;;;;;;5035094;28;20261;-44
2023/02/23 07:03:51;;;;;;;7.18;3.25;;;;;;;;;;5036513;28;20266;-44
2023/02/23 07:06:16;;;;;;;5.00;3.03;;;;;;;;;;5053156;28;20192;-44
2023/02/23 07:08:43;;;;;;;4.40;3.17;;;;;;;;;;5039764;28;20222;-44
2023/02/23 07:11:10;;;;;;;5.15;3.28;;;;;;;;;;5050305;28;20182;-44
2023/02/23 07:13:36;;;;;;;6.35;2.90;;;;;;;;;;5063669;28;20202;-44
2023/02/23 07:16:02;;;;;;;6.50;3.58;;;;;;;;;;5041576;28;20237;-44
2023/02/23 07:18:28;;;;;;;3.85;2.80;;;;;;;;;;5048178;28;20183;-44
2023/02/23 07:20:54;;;;;;;5.22;3.05;;;;;;;;;;5042382;28;20278;-44
2023/02/23 07:23:21;;;;;;;4.90;3.08;;;;;;;;;;5044587;28;20286;-44
2023/02/23 07:25:49;;;;;;;6.75;3.28;;;;;;;;;;5055757;28;20214;-44
2023/02/23 07:28:15;;;;;;;5.32;3.00;;;;;;;;;;5038697;28;20249;-44
2023/02/23 07:30:41;;;;;;;4.68;2.90;;;;;;;;;;5053754;28;20578;-44
2023/02/23 07:33:07;;;;;;;3.47;2.70;;;;;;;;;;5042851;28;20210;-44
2023/02/23 07:35:33;;;;;;;5.13;3.15;;;;;;;;;;5042130;28;20183;-44
2023/02/23 07:37:59;;;;;;;5.38;3.00;;;;;;;;;;5045082;28;20207;-44
2023/02/23 07:40:25;;;;;;;4.72;3.13;;;;;;;;;;5048233;28;20184;-44
2023/02/23 07:42:51;;;;;;;3.92;2.80;;;;;;;;;;5053059;28;20186;-44
2023/02/23 07:45:17;;;;;;;4.70;2.78;;;;;;;;;;5060748;28;20575;-44
2023/02/23 07:47:43;;;;;;;6.35;3.40;;;;;;;;;;5044445;28;20194;-44
2023/02/23 07:50:11;;;;;;;4.47;2.50;;;;;;;;;;5056863;28;20179;-44
2023/02/23 07:52:37;;;;;;;6.35;3.00;;;;;;;;;;5046740;28;20179;-44
2023/02/23 07:55:04;;;;;;;4.32;2.97;;;;;;;;;;5046240;28;20598;-44
2023/02/23 07:57:29;;;;;;;3.95;2.90;;;;;;;;;;5050469;28;20189;-44
2023/02/23 07:59:55;;;;;;;6.93;2.95;;;;;;;;;;5055281;28;20175;-44
2023/02/23 08:02:21;;;;;;;3.83;2.63;;;;;;;;;;5047294;28;20240;-44
2023/02/23 08:04:47;;;;;;;3.88;2.80;;;;;;;;;;5043841;28;20172;-44
2023/02/23 08:07:13;;;;;;;4.90;3.00;;;;;;;;;;5037272;28;20187;-44
2023/02/23 08:09:39;;;;;;;4.55;3.08;;;;;;;;;;5058284;28;20193;-44
2023/02/23 08:12:05;;;;;;;4.30;2.70;;;;;;;;;;5065030;28;20285;-44
2023/02/23 08:14:31;;;;;;;4.63;3.35;;;;;;;;;;5060396;28;20224;-44
2023/02/23 08:16:57;;;;;;;3.92;2.83;;;;;;;;;;5047575;28;20183;-44
2023/02/23 08:19:23;;;;;;;4.63;3.10;;;;;;;;;;5061811;28;20184;-44
2023/02/23 08:21:49;;;;;;;3.90;2.92;;;;;;;;;;5044116;28;20502;-44
2023/02/23 08:24:16;;;;;;;2.85;2.55;;;;;;;;;;5046664;28;20554;-44
2023/02/23 08:26:42;;;;;;;4.00;2.47;;;;;;;;;;5043552;28;20192;-44
2023/02/23 08:29:08;;;;;;;3.53;2.53;;;;;;;;;;5058734;28;20230;-44
2023/02/23 08:31:34;;;;;;;3.58;2.75;;;;;;;;;;5059527;28;20190;-44
2023/02/23 08:34:00;;;;;;;3.65;2.70;;;;;;;;;;5049438;28;20207;-44
2023/02/23 08:36:26;;;;;;;5.68;3.15;;;;;;;;;;5035762;28;20203;-44
2023/02/23 08:38:53;;;;;;;4.82;3.00;;;;;;;;;;5062363;28;20196;-44
2023/02/23 08:41:19;;;;;;;3.10;2.70;;;;;;;;;;5062932;28;20166;-44
2023/02/23 08:43:45;;;;;;;2.95;2.50;;;;;;;;;;5062101;28;20180;-44
2023/02/23 08:46:11;;;;;;;3.97;2.60;;;;;;;;;;5039912;28;20305;-44
2023/02/23 08:48:39;;;;;;;3.80;2.92;;;;;;;;;;5046823;28;20184;-44
2023/02/23 08:51:05;;;;;;;4.22;2.88;;;;;;;;;;5040450;28;20183;-44
2023/02/23 08:53:31;;;;;;;4.35;3.08;;;;;;;;;;5042161;28;20460;-44
2023/02/23 08:56:01;;;;;;;3.72;2.80;;;;;;;;;;5047211;28;20259;-44
2023/02/23 08:58:29;;;;;;;4.03;2.20;;;;;;;;;;5046418;28;20170;-44
2023/02/23 09:00:55;;;;;;;3.05;2.60;;;;;;;;;;5042064;28;20172;-44
2023/02/23 09:03:21;;;;;;;3.72;2.70;;;;;;;;;;5035553;28;20183;-44
2023/02/23 09:05:47;;;;;;;4.53;2.50;;;;;;;;;;5044618;28;20209;-44
2023/02/23 09:08:14;;;;;;;4.10;2.53;;;;;;;;;;5041967;28;20210;-44
2023/02/23 09:10:42;;;;;;;4.00;2.60;;;;;;;;;;5043205;28;20183;-44
2023/02/23 09:13:08;;;;;;;3.85;2.67;;;;;;;;;;5059260;28;20178;-44
2023/02/23 09:15:34;;;;;;;3.45;2.60;;;;;;;;;;5048754;28;20234;-44
2023/02/23 09:18:03;;;;;;;4.05;2.90;;;;;;;;;;5043262;28;20182;-44
2023/02/23 09:20:29;;;;;;;3.85;2.45;;;;;;;;;;5046697;28;20194;-44
2023/02/23 09:22:55;;;;;;;4.78;2.50;;;;;;;;;;5056527;28;20175;-44
2023/02/23 09:25:21;;;;;;;3.28;2.90;;;;;;;;;;5050872;28;20175;-44
2023/02/23 09:27:51;;;;;;;5.53;3.05;;;;;;;;;;5047363;28;20558;-44
2023/02/23 09:30:19;;;;;;;3.50;2.88;;;;;;;;;;5051393;28;20232;-44
2023/02/23 09:32:45;;;;;;;2.90;2.50;;;;;;;;;;5048801;28;20554;-44
2023/02/23 09:35:11;;;;;;;3.33;2.60;;;;;;;;;;5061420;28;20214;-44
2023/02/23 09:37:37;;;;;;;4.28;2.63;;;;;;;;;;5056914;28;20593;-44
2023/02/23 09:40:03;;;;;;;2.75;2.55;;;;;;;;;;5049375;28;20207;-44
2023/02/23 09:42:47;;;;;;;4.78;2.90;;;;;;;;;;5063167;28;20183;-44
2023/02/23 09:45:32;;;;;;;2.90;2.53;;;;;;;;;;5042074;28;20594;-44
2023/02/23 09:48:01;;;;;;;3.33;2.63;;;;;;;;;;5054120;28;20194;-44
2023/02/23 09:50:28;;;;;;;3.55;2.45;;;;;;;;;;5061180;28;20269;-44
2023/02/23 09:52:59;;;;;;;3.47;2.78;;;;;;;;;;5048213;28;20191;-44
2023/02/23 09:55:25;;;;;;;3.13;2.63;;;;;;;;;;5043892;28;20188;-44
2023/02/23 09:57:51;;;;;;;4.65;3.00;;;;;;;;;;5049844;28;20211;-44
2023/02/23 10:00:26;;;;;;;2.83;2.42;;;;;;;;;;5050103;28;20222;-44
2023/02/23 10:03:00;;;;;;;2.80;2.35;;;;;;;;;;5042721;28;20606;-44
2023/02/23 10:05:30;;;;;;;3.88;2.75;;;;;;;;;;5034978;28;20175;-44
2023/02/23 10:08:01;;;;;;;2.83;2.50;;;;;;;;;;5037022;28;20171;-44
2023/02/23 10:10:46;;;;;;;4.05;2.70;;;;;;;;;;5042082;28;20178;-44
2023/02/23 10:13:20;;;;;;;2.78;2.55;;;;;;;;;;5061913;28;20478;-44
2023/02/23 10:15:51;;;;;;;2.53;2.33;;;;;;;;;;5040795;28;20178;-44
2023/02/23 10:18:36;;;;;;;2.85;2.47;;;;;;;;;;5040007;28;20196;-44
2023/02/23 10:21:04;;;;;;;3.53;2.50;;;;;;;;;;5037652;28;20194;-44
2023/02/23 10:23:51;;;;;;;3.00;2.70;;;;;;;;;;5048251;28;20233;-44
2023/02/23 10:26:26;;;;;;;3.75;2.97;;;;;;;;;;5048133;28;20489;-44
2023/02/23 10:28:53;;;;;;;2.88;2.50;;;;;;;;;;5046263;28;20190;-44
2023/02/23 10:31:26;;;;;;;2.85;2.42;;;;;;;;;;5043435;28;20187;-44
2023/02/23 10:33:52;;;;;;;3.53;2.45;;;;;;;;;;5051915;28;20302;-44
2023/02/23 10:36:19;;;;;;;3.55;2.63;;;;;;;;;;5050838;28;20202;-44
2023/02/23 10:38:45;;;;;;;3.25;2.63;;;;;;;;;;5042012;28;20196;-44
2023/02/23 10:41:11;;;;;;;2.33;2.10;;;;;;;;;;5055930;28;20239;-44
2023/02/23 10:43:37;;;;;;;2.45;2.20;;;;;;;;;;5053899;28;20562;-44
2023/02/23 10:46:04;;;;;;;3.35;2.72;;;;;;;;;;5063830;28;20170;-44
2023/02/23 10:48:35;;;;;;;2.80;2.40;;;;;;;;;;5051708;28;20187;-44
2023/02/23 10:51:04;;;;;;;3.10;2.58;;;;;;;;;;5041612;28;20242;-44
2023/02/23 10:53:34;;;;;;;3.38;2.83;;;;;;;;;;5038044;28;20225;-44
2023/02/23 10:56:02;;;;;;;4.15;3.00;;;;;;;;;;5038644;28;20229;-44
2023/02/23 10:58:28;;;;;;;2.65;2.13;;;;;;;;;;5044036;28;20276;-44
2023/02/23 11:00:56;;;;;;;2.67;2.47;;;;;;;;;;5042428;28;20186;-44
2023/02/23 11:03:25;;;;;;;3.20;2.67;;;;;;;;;;5055096;28;20188;-44
2023/02/23 11:05:52;;;;;;;4.35;2.40;;;;;;;;;;5041571;28;20203;-44
2023/02/23 11:08:39;;;;;;;3.33;2.80;;;;;;;;;;5046076;28;20599;-44
2023/02/23 11:11:24;;;;;;;4.10;2.75;;;;;;;;;;5060487;28;20213;-44
2023/02/23 11:13:50;;;;;;;2.38;2.17;;;;;;;;;;5061353;28;20268;-44
2023/02/23 11:16:18;;;;;;;3.22;2.55;;;;;;;;;;5040290;28;20202;-44
2023/02/23 11:18:50;;;;;;;2.88;2.58;;;;;;;;;;5040177;28;20183;-44
2023/02/23 11:21:24;;;;;;;3.30;2.38;;;;;;;;;;5049443;28;20183;-44
2023/02/23 11:23:51;;;;;;;2.90;2.50;;;;;;;;;;5055502;28;20187;-44
2023/02/23 11:26:23;;;;;;;3.08;2.45;;;;;;;;;;5045996;28;20184;-44
2023/02/23 11:28:51;;;;;;;2.83;2.45;;;;;;;;;;5051995;28;20213;-44
2023/02/23 11:31:22;;;;;;;2.78;2.35;;;;;;;;;;5054966;28;20528;-44
2023/02/23 11:33:49;;;;;;;3.78;2.38;;;;;;;;;;5047106;28;20298;-44
2023/02/23 11:36:28;;;;;;;3.47;2.40;;;;;;;;;;5044610;28;20274;-44
2023/02/23 11:39:03;;;;;;;2.70;2.45;;;;;;;;;;5054969;28;20455;-44
2023/02/23 11:41:31;;;;;;;3.13;2.30;;;;;;;;;;5052341;28;20178;-44
2023/02/23 11:43:58;;;;;;;4.15;2.65;;;;;;;;;;5055841;28;20185;-44
2023/02/23 11:46:25;;;;;;;2.70;2.50;;;;;;;;;;5053314;28;20192;-44
2023/02/23 11:48:59;;;;;;;3.15;2.25;;;;;;;;;;5054978;28;20191;-44
2023/02/23 11:51:32;;;;;;;2.63;2.42;;;;;;;;;;5053873;28;20190;-44
2023/02/23 11:53:59;;;;;;;3.17;2.60;;;;;;;;;;5042948;28;20196;-44
2023/02/23 11:56:26;;;;;;;3.30;2.60;;;;;;;;;;5061806;28;20185;-44
2023/02/23 11:58:54;;;;;;;4.20;2.38;;;;;;;;;;5052476;28;20563;-44
2023/02/23 12:01:22;;;;;;;2.75;2.55;;;;;;;;;;5054823;28;20448;-44
2023/02/23 12:03:51;;;;;;;3.95;2.80;;;;;;;;;;5054866;28;20248;-44
2023/02/23 12:06:31;;;;;;;3.67;2.70;;;;;;;;;;5052318;28;20266;-44
2023/02/23 12:09:01;;;;;;;2.88;2.58;;;;;;;;;;5050598;28;20206;-44
2023/02/23 12:11:28;;;;;;;3.45;2.50;;;;;;;;;;5066179;28;20502;-44
2023/02/23 12:14:03;;;;;;;3.55;2.55;;;;;;;;;;5041026;28;20242;-44
2023/02/23 12:16:32;;;;;;;2.88;2.58;;;;;;;;;;5048707;28;20193;-44
2023/02/23 12:19:04;;;;;;;3.30;2.60;;;;;;;;;;5071385;28;20170;-44
2023/02/23 12:21:44;;;;;;;2.92;2.35;;;;;;;;;;5057917;28;20434;-44
2023/02/23 12:24:31;;;;;;;3.25;2.80;;;;;;;;;;5052812;28;20449;-44
2023/02/23 12:26:57;;;;;;;2.80;2.33;;;;;;;;;;5050588;28;20182;-44
2023/02/23 12:29:23;;;;;;;2.53;2.33;;;;;;;;;;5042606;28;20209;-44
2023/02/23 12:31:52;;;;;;;3.90;2.90;;;;;;;;;;5046170;28;20218;-44
2023/02/23 12:34:29;;;;;;;2.95;2.60;;;;;;;;;;5062285;28;20606;-44
2023/02/23 12:36:58;;;;;;;4.22;2.70;;;;;;;;;;5052923;28;20180;-44
2023/02/23 12:39:29;;;;;;;4.43;2.58;;;;;;;;;;5043964;28;20579;-44
2023/02/23 12:42:01;;;;;;;2.80;2.40;;;;;;;;;;5059758;28;20168;-44
2023/02/23 12:44:46;;;;;;;2.95;2.40;;;;;;;;;;5046570;28;20191;-44
2023/02/23 12:47:31;;;;;;;4.05;2.50;;;;;;;;;;5047298;28;20222;-44
2023/02/23 12:50:10;;;;;;;3.83;2.50;;;;;;;;;;5054246;28;20195;-44
2023/02/23 12:52:36;;;;;;;3.10;2.47;;;;;;;;;;5043605;28;20260;-44
2023/02/23 12:55:03;;;;;;;3.95;2.60;;;;;;;;;;5051535;28;20203;-44
2023/02/23 12:57:37;;;;;;;2.75;2.55;;;;;;;;;;5049183;28;20226;-44
2023/02/23 13:00:29;;;;;;;4.60;2.75;;;;;;;;;;5054831;28;20162;-44
2023/02/23 13:03:08;;;;;;;3.35;2.60;;;;;;;;;;5049145;28;20171;-44
2023/02/23 13:05:40;;;;;;;2.67;2.40;;;;;;;;;;5038895;28;20179;-44
2023/02/23 13:08:14;;;;;;;3.00;2.70;;;;;;;;;;5035228;28;20180;-44
2023/02/23 13:10:39;;;;;;;3.58;2.63;;;;;;;;;;5050085;28;20191;-44
2023/02/23 13:13:24;;;;;;;2.92;2.38;;;;;;;;;;5046274;28;20167;-44
2023/02/23 13:15:56;;;;;;;3.17;2.60;;;;;;;;;;5040446;28;20190;-44
2023/02/23 13:18:45;;;;;;;4.20;2.58;;;;;;;;;;5043463;28;20176;-44
2023/02/23 13:21:23;;;;;;;3.15;2.67;;;;;;;;;;5037235;28;20233;-44
2023/02/23 13:24:10;;;;;;;4.05;2.88;;;;;;;;;;5040203;28;20176;-44
2023/02/23 13:26:51;;;;;;;3.78;2.63;;;;;;;;;;5043889;28;20195;-44
2023/02/23 13:29:35;;;;;;;3.20;2.63;;;;;;;;;;5054134;28;20276;-44
2023/02/23 13:32:03;;;;;;;3.45;2.47;;;;;;;;;;5041709;28;20188;-44
2023/02/23 13:34:31;;;;;;;2.33;2.13;;;;;;;;;;5066655;28;20211;-44
2023/02/23 13:36:58;;;;;;;3.15;2.40;;;;;;;;;;5040514;28;20187;-44
2023/02/23 13:39:44;;;;;;;2.58;2.33;;;;;;;;;;5044275;28;20269;-44
2023/02/23 13:42:21;;;;;;;2.33;2.13;;;;;;;;;;5042263;28;20182;-44
2023/02/23 13:45:13;;;;;;;2.25;2.05;;;;;;;;;;5046037;28;20185;-44
2023/02/23 13:47:49;;;;;;;3.53;2.80;;;;;;;;;;5045012;28;20195;-44
2023/02/23 13:50:21;;;;;;;5.38;2.53;;;;;;;;;;5040225;28;20258;-44
2023/02/23 13:52:47;;;;;;;7.43;3.15;;;;;;;;;;5047901;28;20179;-43
2023/02/23 13:55:25;;;;;;;4.63;2.78;;;;;;;;;;5054119;28;20219;-44
2023/02/23 13:58:14;;;;;;;3.78;2.50;;;;;;;;;;5044318;28;20183;-44
2023/02/23 14:00:40;;;;;;;5.45;2.85;;;;;;;;;;5041471;28;20719;-44
2023/02/23 14:03:07;;;;;;;7.18;2.63;;;;;;;;;;5047986;28;20507;-44
2023/02/23 14:05:43;;;;;;;5.57;2.45;;;;;;;;;;5056908;28;20273;-45
2023/02/23 14:08:19;;;;;;;6.40;2.60;;;;;;;;;;5042402;28;20264;-45
2023/02/23 14:10:45;;;;;;;4.78;3.03;;;;;;;;;;5060283;28;20260;-44
2023/02/23 14:13:17;;;;;;;10.57;2.83;;;;;;;;;;5048022;28;20263;-44
2023/02/23 14:15:52;;;;;;;13.73;2.72;;;;;;;;;;5042694;28;20426;-45
2023/02/23 14:18:18;;;;;;;6.18;3.05;;;;;;;;;;5067516;28;20226;-45
2023/02/23 14:21:03;;;;;;;4.63;2.63;;;;;;;;;;5055605;28;20207;-45
2023/02/23 14:23:29;;;;;;;5.93;2.50;;;;;;;;;;5056303;28;20179;-45
2023/02/23 14:26:12;;;;;;;9.82;2.60;;;;;;;;;;5044403;28;20188;-45
2023/02/23 14:28:39;;;;;;;4.45;2.50;;;;;;;;;;5051120;28;20505;-45
2023/02/23 14:31:05;;;;;;;6.13;2.50;;;;;;;;;;5044457;28;20252;-45
2023/02/23 14:33:36;;;;;;;3.38;2.35;;;;;;;;;;5056307;28;20198;-45
2023/02/23 14:36:12;;;;;;;4.40;2.67;;;;;;;;;;5058288;28;20175;-45
2023/02/23 14:38:40;;;;;;;7.72;2.65;;;;;;;;;;5043249;28;20200;-45
2023/02/23 14:41:08;;;;;;;7.32;2.42;;;;;;;;;;5060847;28;20190;-45
2023/02/23 14:43:34;;;;;;;5.88;2.40;;;;;;;;;;5048354;28;20178;-45
2023/02/23 14:46:04;;;;;;;4.20;2.67;;;;;;;;;;5051784;28;20177;-45
2023/02/23 14:48:31;;;;;;;4.57;2.33;;;;;;;;;;5056281;28;22050;-45
2023/02/23 14:51:16;;;;;;;3.75;2.38;;;;;;;;;;5044505;28;20195;-44
2023/02/23 14:53:41;;;;;;;5.50;2.88;;;;;;;;;;5049144;28;20253;-44
2023/02/23 14:56:17;;;;;;;4.90;2.38;;;;;;;;;;5045346;28;20187;-45
2023/02/23 14:58:48;;;;;;;5.18;2.90;;;;;;;;;;5034885;28;20175;-45
2023/02/23 15:01:31;;;;;;;4.95;2.47;;;;;;;;;;5046850;28;20183;-45
2023/02/23 15:04:11;;;;;;;8.43;2.85;;;;;;;;;;5046463;28;20266;-45
2023/02/23 15:06:38;;;;;;;4.70;2.42;;;;;;;;;;5043769;28;20186;-45
2023/02/23 15:09:04;;;;;;;4.47;2.80;;;;;;;;;;5041948;28;20258;-45
2023/02/23 15:11:30;;;;;;;3.38;2.33;;;;;;;;;;5038494;28;20196;-44
2023/02/23 15:13:57;;;;;;;4.28;2.58;;;;;;;;;;5041911;28;20622;-45
2023/02/23 15:16:36;;;;;;;3.42;2.50;;;;;;;;;;5048058;28;20641;-44
2023/02/23 15:19:30;;;;;;;6.15;2.78;;;;;;;;;;5043894;28;20206;-45
2023/02/23 15:21:57;;;;;;;4.05;2.40;;;;;;;;;;5052365;28;20180;-45
2023/02/23 15:24:27;;;;;;;4.60;2.47;;;;;;;;;;5060708;28;20423;-45
2023/02/23 15:26:56;;;;;;;3.30;2.53;;;;;;;;;;5054912;28;20225;-44
2023/02/23 15:29:30;;;;;;;3.63;2.38;;;;;;;;;;5069118;28;20205;-45
2023/02/23 15:31:56;;;;;;;3.22;2.70;;;;;;;;;;5049843;28;20191;-45
2023/02/23 15:34:22;;;;;;;4.45;2.63;;;;;;;;;;5065584;28;20199;-45
2023/02/23 15:36:57;;;;;;;4.47;2.90;;;;;;;;;;5050058;28;20459;-45
2023/02/23 15:39:47;;;;;;;5.05;2.55;;;;;;;;;;5059436;28;20186;-45
2023/02/23 15:42:14;;;;;;;3.40;2.38;;;;;;;;;;5043240;28;20191;-45
2023/02/23 15:44:40;;;;;;;4.60;2.60;;;;;;;;;;5060965;28;20650;-44
2023/02/23 15:47:15;;;;;;;3.97;2.30;;;;;;;;;;5058576;28;20175;-45
2023/02/23 15:49:41;;;;;;;3.65;2.63;;;;;;;;;;5049420;28;20184;-45
2023/02/23 15:52:09;;;;;;;3.70;2.50;;;;;;;;;;5046013;28;20199;-45
2023/02/23 15:54:48;;;;;;;3.47;1.92;;;;;;;;;;5047681;28;20211;-45
2023/02/23 15:57:21;;;;;;;3.78;2.67;;;;;;;;;;5048667;28;20614;-45
2023/02/23 15:59:53;;;;;;;2.70;2.47;;;;;;;;;;5046550;28;20266;-44
2023/02/23 16:02:19;;;;;;;2.90;2.60;;;;;;;;;;5058503;28;20183;-45
2023/02/23 16:04:52;;;;;;;3.28;2.33;;;;;;;;;;5067700;28;20545;-45
2023/02/23 16:07:18;;;;;;;3.60;2.55;;;;;;;;;;5057007;28;20186;-45
2023/02/23 16:09:52;;;;;;;3.70;2.08;;;;;;;;;;5068793;28;20558;-45
2023/02/23 16:12:20;;;;;;;3.03;2.42;;;;;;;;;;5054870;28;20187;-45
2023/02/23 16:14:49;;;;;;;3.25;2.33;;;;;;;;;;5057282;28;20198;-44
2023/02/23 16:17:30;;;;;;;3.15;2.20;;;;;;;;;;5059217;28;20250;-45
2023/02/23 16:20:10;;;;;;;3.05;2.20;;;;;;;;;;5049795;28;20202;-45